createdAt,value
2023-02-08T00:00:13.550Z,7.40
2023-02-08T00:02:40.495Z,7.20
2023-02-08T00:05:07.600Z,6.90
2023-02-08T00:07:34.663Z,6.72
2023-02-08T00:10:04.951Z,6.90
2023-02-08T00:12:34.387Z,7.10
2023-02-08T00:15:01.330Z,7.25
2023-02-08T00:17:28.298Z,7.10
2023-02-08T00:19:55.129Z,7.30
2023-02-08T00:22:22.062Z,6.90
2023-02-08T00:24:50.129Z,6.78
2023-02-08T00:27:17.458Z,6.70
2023-02-08T00:29:44.314Z,7.50
2023-02-08T00:32:11.033Z,7.20
2023-02-08T00:34:38.883Z,7.45
2023-02-08T00:37:06.746Z,6.63
2023-02-08T00:39:33.518Z,7.25
2023-02-08T00:42:00.354Z,7.25
2023-02-08T00:44:27.118Z,7.30
2023-02-08T00:46:54.768Z,7.20
2023-02-08T00:49:21.714Z,7.30
2023-02-08T00:51:48.701Z,7.17
2023-02-08T00:54:19.135Z,7.03
2023-02-08T00:56:46.249Z,7.18
2023-02-08T00:59:13.400Z,7.43
2023-02-08T01:01:40.617Z,7.38
2023-02-08T01:04:07.721Z,7.50
2023-02-08T01:06:34.650Z,7.47
2023-02-08T01:09:01.400Z,7.60
2023-02-08T01:11:28.119Z,6.80
2023-02-08T01:13:59.817Z,7.40
2023-02-08T01:16:29.801Z,7.45
2023-02-08T01:18:59.121Z,7.00
2023-02-08T01:21:30.847Z,7.20
2023-02-08T01:24:00.515Z,7.20
2023-02-08T01:26:30.518Z,7.10
2023-02-08T01:28:57.831Z,7.47
2023-02-08T01:31:29.027Z,7.53
2023-02-08T01:33:56.736Z,7.53
2023-02-08T01:36:24.327Z,7.55
2023-02-08T01:38:51.096Z,7.20
2023-02-08T01:41:27.835Z,7.23
2023-02-08T01:44:13.241Z,7.30
2023-02-08T01:46:42.391Z,7.30
2023-02-08T01:49:19.593Z,7.80
2023-02-08T01:52:00.135Z,6.95
2023-02-08T01:54:31.326Z,7.03
2023-02-08T01:56:58.480Z,7.22
2023-02-08T01:59:31.025Z,7.13
2023-02-08T02:01:59.072Z,6.53
2023-02-08T02:04:27.951Z,7.45
2023-02-08T02:06:57.745Z,7.53
2023-02-08T02:09:41.621Z,7.28
2023-02-08T02:12:09.618Z,6.93
2023-02-08T02:14:38.918Z,7.82
2023-02-08T02:17:06.805Z,7.25
2023-02-08T02:19:57.231Z,7.40
2023-02-08T02:22:48.108Z,7.33
2023-02-08T02:25:15.272Z,7.43
2023-02-08T02:28:02.198Z,7.05
2023-02-08T02:30:50.442Z,6.88
2023-02-08T02:33:43.942Z,7.05
2023-02-08T02:36:28.848Z,6.82
2023-02-08T02:39:18.765Z,7.20
2023-02-08T02:42:12.970Z,7.32
2023-02-08T02:45:20.896Z,7.32
2023-02-08T02:47:53.904Z,7.17
2023-02-08T02:50:27.612Z,6.88
2023-02-08T02:53:03.732Z,7.47
2023-02-08T02:55:36.030Z,6.88
2023-02-08T02:58:05.791Z,7.28
2023-02-08T03:00:33.666Z,6.90
2023-02-08T03:03:02.580Z,7.20
2023-02-08T03:05:29.674Z,7.00
2023-02-08T03:08:15.353Z,6.80
2023-02-08T03:11:08.385Z,7.30
2023-02-08T03:13:56.546Z,7.20
2023-02-08T03:16:52.266Z,6.95
2023-02-08T03:19:32.274Z,7.43
2023-02-08T03:22:14.419Z,7.15
2023-02-08T03:25:07.890Z,7.20
2023-02-08T03:27:44.661Z,7.40
2023-02-08T03:30:49.929Z,6.97
2023-02-08T03:33:49.809Z,7.25
2023-02-08T03:36:57.700Z,7.05
2023-02-08T03:39:28.201Z,7.00
2023-02-08T03:42:00.341Z,6.78
2023-02-08T03:44:34.199Z,6.80
2023-02-08T03:47:15.754Z,6.60
2023-02-08T03:49:45.787Z,6.90
2023-02-08T03:52:12.841Z,6.53
2023-02-08T03:54:51.690Z,6.78
2023-02-08T03:57:26.298Z,6.75
2023-02-08T04:00:07.207Z,7.18
2023-02-08T04:02:43.467Z,7.00
2023-02-08T04:05:10.524Z,6.70
2023-02-08T04:07:37.424Z,6.57
2023-02-08T04:10:06.928Z,6.45
2023-02-08T04:12:33.740Z,6.97
2023-02-08T04:15:00.485Z,7.10
2023-02-08T04:17:27.326Z,7.07
2023-02-08T04:19:54.232Z,6.70
2023-02-08T04:22:21.031Z,6.90
2023-02-08T04:24:47.756Z,6.90
2023-02-08T04:27:14.502Z,6.88
2023-02-08T04:29:41.680Z,6.35
2023-02-08T04:32:11.610Z,6.38
2023-02-08T04:34:39.135Z,6.30
2023-02-08T04:37:07.469Z,6.35
2023-02-08T04:39:34.472Z,6.77
2023-02-08T04:42:03.202Z,6.85
2023-02-08T04:44:32.692Z,6.50
2023-02-08T04:47:00.401Z,6.75
2023-02-08T04:49:27.165Z,6.78
2023-02-08T04:51:53.923Z,6.50
2023-02-08T04:54:21.309Z,6.35
2023-02-08T04:56:48.345Z,6.28
2023-02-08T04:59:15.158Z,6.80
2023-02-08T05:01:41.956Z,6.65
2023-02-08T05:04:08.802Z,6.45
2023-02-08T05:06:35.895Z,6.22
2023-02-08T05:09:02.690Z,6.57
2023-02-08T05:11:29.541Z,6.57
2023-02-08T05:13:56.326Z,6.83
2023-02-08T05:16:26.110Z,6.90
2023-02-08T05:18:52.945Z,6.82
2023-02-08T05:21:19.658Z,6.60
2023-02-08T05:23:46.881Z,6.78
2023-02-08T05:26:16.314Z,6.25
2023-02-08T05:28:43.058Z,6.55
2023-02-08T05:31:19.733Z,6.17
2023-02-08T05:33:46.736Z,6.40
2023-02-08T05:36:13.539Z,6.38
2023-02-08T05:38:40.280Z,6.40
2023-02-08T05:41:07.018Z,6.50
2023-02-08T05:43:33.741Z,6.60
2023-02-08T05:46:00.580Z,6.70
2023-02-08T05:48:27.827Z,6.88
2023-02-08T05:50:54.647Z,6.78
2023-02-08T05:53:21.452Z,6.88
2023-02-08T05:55:51.662Z,6.63
2023-02-08T05:58:18.438Z,6.40
2023-02-08T06:00:47.985Z,6.55
2023-02-08T06:03:14.763Z,6.45
2023-02-08T06:05:42.071Z,6.57
2023-02-08T06:08:09.495Z,6.38
2023-02-08T06:10:36.638Z,6.30
2023-02-08T06:13:04.445Z,6.65
2023-02-08T06:15:31.414Z,6.22
2023-02-08T06:17:58.294Z,6.55
2023-02-08T06:20:25.165Z,6.63
2023-02-08T06:22:52.027Z,6.57
2023-02-08T06:25:18.761Z,6.60
2023-02-08T06:27:45.533Z,6.13
2023-02-08T06:30:13.034Z,6.43
2023-02-08T06:32:39.842Z,6.95
2023-02-08T06:35:07.188Z,6.80
2023-02-08T06:37:34.077Z,6.88
2023-02-08T06:40:01.916Z,6.78
2023-02-08T06:42:29.054Z,6.90
2023-02-08T06:44:57.907Z,6.90
2023-02-08T06:47:26.214Z,6.60
2023-02-08T06:49:53.693Z,7.28
2023-02-08T06:52:21.121Z,7.03
2023-02-08T06:54:49.969Z,7.60
2023-02-08T06:57:16.948Z,8.02
2023-02-08T06:59:43.865Z,8.50
2023-02-08T07:02:13.422Z,8.90
2023-02-08T07:04:40.534Z,9.32
2023-02-08T07:07:07.499Z,10.35
2023-02-08T07:09:35.727Z,10.10
2023-02-08T07:12:05.016Z,10.48
2023-02-08T07:14:37.031Z,10.93
2023-02-08T07:17:04.226Z,11.10
2023-02-08T07:19:31.410Z,11.88
2023-02-08T07:22:07.852Z,12.05
2023-02-08T07:24:36.349Z,11.87
2023-02-08T07:27:03.228Z,12.27
2023-02-08T07:29:31.747Z,13.00
2023-02-08T07:32:00.432Z,15.23
2023-02-08T07:34:30.312Z,21.70
2023-02-08T07:36:58.295Z,22.30
2023-02-08T07:39:26.308Z,25.30
2023-02-08T07:41:53.368Z,26.98
2023-02-08T07:44:20.597Z,26.60
2023-02-08T07:46:48.443Z,29.00
2023-02-08T07:49:15.535Z,30.50
2023-02-08T07:51:42.331Z,37.63
2023-02-08T07:54:09.107Z,60.90
2023-02-08T07:56:35.896Z,71.10
2023-02-08T07:59:02.651Z,87.45
2023-02-08T08:01:29.468Z,89.28
2023-02-08T08:03:56.342Z,102.57
2023-02-08T08:06:23.846Z,114.63
2023-02-08T08:08:51.763Z,117.57
2023-02-08T08:11:22.252Z,116.30
2023-02-08T08:13:49.897Z,115.03
2023-02-08T08:16:17.712Z,113.45
2023-02-08T08:18:44.635Z,114.28
2023-02-08T08:21:11.445Z,112.45
2023-02-08T08:23:41.075Z,113.28
2023-02-08T08:26:16.606Z,109.23
2023-02-08T08:28:43.814Z,109.63
2023-02-08T08:31:20.112Z,106.13
2023-02-08T08:33:47.646Z,103.43
2023-02-08T08:36:14.454Z,102.63
2023-02-08T08:38:43.512Z,100.43
2023-02-08T08:41:12.850Z,98.97
2023-02-08T08:43:39.700Z,95.90
2023-02-08T08:46:07.938Z,93.25
2023-02-08T08:48:35.680Z,93.43
2023-02-08T08:51:03.134Z,90.15
2023-02-08T08:53:30.403Z,95.60
2023-02-08T08:55:57.149Z,94.32
2023-02-08T08:58:23.878Z,93.87
2023-02-08T09:00:50.667Z,93.10
2023-02-08T09:03:18.376Z,92.00
2023-02-08T09:05:46.952Z,91.65
2023-02-08T09:08:13.893Z,93.60
2023-02-08T09:10:40.998Z,94.05
2023-02-08T09:13:08.498Z,93.07
2023-02-08T09:15:39.655Z,92.30
2023-02-08T09:18:06.601Z,92.18
2023-02-08T09:20:33.470Z,89.65
2023-02-08T09:23:00.346Z,90.45
2023-02-08T09:25:27.377Z,87.68
2023-02-08T09:27:54.098Z,87.72
2023-02-08T09:30:21.903Z,86.23
2023-02-08T09:32:48.735Z,86.35
2023-02-08T09:35:16.054Z,85.33
2023-02-08T09:37:44.901Z,84.40
2023-02-08T09:40:25.735Z,80.70
2023-02-08T09:43:24.409Z,80.65
2023-02-08T09:46:05.430Z,78.07
2023-02-08T09:48:36.142Z,78.15
2023-02-08T09:51:21.928Z,75.03
2023-02-08T09:53:54.122Z,74.47
2023-02-08T09:56:27.572Z,72.85
2023-02-08T09:58:56.334Z,72.57
2023-02-08T10:01:27.714Z,71.47
2023-02-08T10:04:01.287Z,70.18
2023-02-08T10:06:29.772Z,68.78
2023-02-08T10:08:59.591Z,69.37
2023-02-08T10:11:43.186Z,67.50
2023-02-08T10:14:45.108Z,65.00
2023-02-08T10:17:20.850Z,65.70
2023-02-08T10:20:02.808Z,64.05
2023-02-08T10:23:22.534Z,66.03
2023-02-08T10:26:16.817Z,64.45
2023-02-08T10:29:07.812Z,64.90
2023-02-08T10:31:49.698Z,65.78
2023-02-08T10:34:52.434Z,62.40
2023-02-08T10:37:35.954Z,62.45
2023-02-08T10:40:17.178Z,61.60
2023-02-08T10:43:07.475Z,61.60
2023-02-08T10:46:02.381Z,60.50
2023-02-08T10:48:59.909Z,60.10
2023-02-08T10:51:27.437Z,58.38
2023-02-08T10:53:54.787Z,57.03
2023-02-08T10:56:37.224Z,55.78
2023-02-08T10:59:15.510Z,56.85
2023-02-08T11:01:44.264Z,54.35
2023-02-08T11:04:13.227Z,54.43
2023-02-08T11:06:42.249Z,55.42
2023-02-08T11:09:20.716Z,53.45
2023-02-08T11:11:50.726Z,53.22
2023-02-08T11:14:19.441Z,52.67
2023-02-08T11:16:57.250Z,53.45
2023-02-08T11:19:35.511Z,53.85
2023-02-08T11:22:05.827Z,51.17
2023-02-08T11:24:41.428Z,51.45
2023-02-08T11:27:19.256Z,51.30
2023-02-08T11:29:46.324Z,51.63
2023-02-08T11:32:20.293Z,49.55
2023-02-08T11:34:47.278Z,50.58
2023-02-08T11:37:15.960Z,49.20
2023-02-08T11:39:58.539Z,49.28
2023-02-08T11:42:34.832Z,46.38
2023-02-08T11:45:02.396Z,48.50
2023-02-08T11:47:32.765Z,46.97
2023-02-08T11:50:02.794Z,46.15
2023-02-08T11:52:37.753Z,45.60
2023-02-08T11:55:16.818Z,46.55
2023-02-08T11:57:55.565Z,45.88
2023-02-08T12:00:26.202Z,45.17
2023-02-08T12:03:01.975Z,45.70
2023-02-08T12:05:48.520Z,45.33
2023-02-08T12:08:24.378Z,44.75
2023-02-08T12:11:05.785Z,44.67
2023-02-08T12:13:52.985Z,42.78
2023-02-08T12:16:51.200Z,42.08
2023-02-08T12:19:46.961Z,41.42
2023-02-08T12:22:29.608Z,41.80
2023-02-08T12:25:14.666Z,41.50
2023-02-08T12:27:49.526Z,40.08
2023-02-08T12:30:28.468Z,41.17
2023-02-08T12:33:16.713Z,40.80
2023-02-08T12:36:10.608Z,39.27
2023-02-08T12:39:26.156Z,39.72
2023-02-08T12:42:27.949Z,40.45
2023-02-08T12:45:14.776Z,38.67
2023-02-08T12:48:06.721Z,38.38
2023-02-08T12:51:01.168Z,38.85
2023-02-08T12:53:33.526Z,39.17
2023-02-08T12:56:06.758Z,40.95
2023-02-08T12:58:56.860Z,39.95
2023-02-08T13:01:31.846Z,39.85
2023-02-08T13:04:30.788Z,38.42
2023-02-08T13:07:01.605Z,40.05
2023-02-08T13:10:04.088Z,39.72
2023-02-08T13:12:38.627Z,40.88
2023-02-08T13:15:24.801Z,40.60
2023-02-08T13:18:04.173Z,46.92
2023-02-08T13:20:58.321Z,47.40
2023-02-08T13:23:38.435Z,48.90
2023-02-08T13:26:21.713Z,49.73
2023-02-08T13:28:53.928Z,49.35
2023-02-08T13:31:39.073Z,49.42
2023-02-08T13:34:14.847Z,48.45
2023-02-08T13:36:50.172Z,49.95
2023-02-08T13:39:36.054Z,49.53
2023-02-08T13:42:06.472Z,47.20
2023-02-08T13:44:38.415Z,47.67
2023-02-08T13:47:07.196Z,47.60
2023-02-08T13:49:55.754Z,48.47
2023-02-08T13:52:47.152Z,46.47
2023-02-08T13:55:33.358Z,46.50
2023-02-08T13:58:01.298Z,45.30
2023-02-08T14:00:35.701Z,45.33
2023-02-08T14:03:04.130Z,44.55
2023-02-08T14:05:41.752Z,43.67
2023-02-08T14:08:19.427Z,44.17
2023-02-08T14:11:01.963Z,44.45
2023-02-08T14:13:41.075Z,43.65
2023-02-08T14:16:29.149Z,43.05
2023-02-08T14:18:59.347Z,43.90
2023-02-08T14:21:38.162Z,43.72
2023-02-08T14:24:08.791Z,44.07
2023-02-08T14:26:37.466Z,43.65
2023-02-08T14:29:06.864Z,43.72
2023-02-08T14:31:45.095Z,43.85
2023-02-08T14:34:34.778Z,45.10
2023-02-08T14:37:24.699Z,42.63
2023-02-08T14:40:22.927Z,42.13
2023-02-08T14:42:55.738Z,54.10
2023-02-08T14:45:34.730Z,48.22
2023-02-08T14:48:23.275Z,52.27
2023-02-08T14:51:08.828Z,50.72
2023-02-08T14:53:41.551Z,50.70
2023-02-08T14:56:11.101Z,49.20
2023-02-08T14:58:41.263Z,48.28
2023-02-08T15:01:28.234Z,48.08
2023-02-08T15:04:00.444Z,47.10
2023-02-08T15:06:31.518Z,46.45
2023-02-08T15:08:58.477Z,45.30
2023-02-08T15:11:29.704Z,43.90
2023-02-08T15:14:01.371Z,43.47
2023-02-08T15:16:43.300Z,41.28
2023-02-08T15:19:22.741Z,41.33
2023-02-08T15:21:49.533Z,41.70
2023-02-08T15:24:22.702Z,42.10
2023-02-08T15:26:54.732Z,40.50
2023-02-08T15:29:43.936Z,39.77
2023-02-08T15:32:17.633Z,38.55
2023-02-08T15:34:48.174Z,37.40
2023-02-08T15:37:18.911Z,36.20
2023-02-08T15:39:57.271Z,35.85
2023-02-08T15:42:28.818Z,35.72
2023-02-08T15:44:56.377Z,35.47
2023-02-08T15:47:30.618Z,34.05
2023-02-08T15:49:58.790Z,34.80
2023-02-08T15:52:31.205Z,33.40
2023-02-08T15:54:58.129Z,33.40
2023-02-08T15:57:45.903Z,32.87
2023-02-08T16:00:26.219Z,32.45
2023-02-08T16:02:59.914Z,31.65
2023-02-08T16:05:30.392Z,30.33
2023-02-08T16:07:58.877Z,30.63
2023-02-08T16:10:28.346Z,29.50
2023-02-08T16:12:58.657Z,29.47
2023-02-08T16:15:40.525Z,28.90
2023-02-08T16:18:35.630Z,29.50
2023-02-08T16:21:04.799Z,28.83
2023-02-08T16:23:33.905Z,28.70
2023-02-08T16:26:23.760Z,27.70
2023-02-08T16:29:06.149Z,27.80
2023-02-08T16:31:35.321Z,26.80
2023-02-08T16:34:07.709Z,27.25
2023-02-08T16:36:49.144Z,26.02
2023-02-08T16:39:18.643Z,25.10
2023-02-08T16:42:09.586Z,25.27
2023-02-08T16:45:12.824Z,25.00
2023-02-08T16:47:58.442Z,23.73
2023-02-08T16:50:28.447Z,24.37
2023-02-08T16:53:04.074Z,23.33
2023-02-08T16:55:36.094Z,24.05
2023-02-08T16:58:02.916Z,23.13
2023-02-08T17:00:32.051Z,22.42
2023-02-08T17:02:59.471Z,21.73
2023-02-08T17:05:38.509Z,22.75
2023-02-08T17:08:09.735Z,21.52
2023-02-08T17:10:37.132Z,21.65
2023-02-08T17:13:19.207Z,22.08
2023-02-08T17:15:49.239Z,21.00
2023-02-08T17:18:16.313Z,20.50
2023-02-08T17:20:43.957Z,21.50
2023-02-08T17:23:11.935Z,20.23
2023-02-08T17:25:39.495Z,20.50
2023-02-08T17:28:14.969Z,19.65
2023-02-08T17:30:43.487Z,19.85
2023-02-08T17:33:17.804Z,19.70
2023-02-08T17:35:49.604Z,19.60
2023-02-08T17:38:20.028Z,19.30
2023-02-08T17:40:47.320Z,19.65
2023-02-08T17:43:14.638Z,19.00
2023-02-08T17:45:43.779Z,19.90
2023-02-08T17:48:13.339Z,18.83
2023-02-08T17:50:43.026Z,18.85
2023-02-08T17:53:09.963Z,18.70
2023-02-08T17:55:36.744Z,18.27
2023-02-08T17:58:03.541Z,18.77
2023-02-08T18:00:30.287Z,18.17
2023-02-08T18:02:59.763Z,18.25
2023-02-08T18:05:28.623Z,17.67
2023-02-08T18:07:56.507Z,18.15
2023-02-08T18:10:24.676Z,17.70
2023-02-08T18:12:51.675Z,17.77
2023-02-08T18:15:21.041Z,17.47
2023-02-08T18:17:48.465Z,17.00
2023-02-08T18:20:16.071Z,17.30
2023-02-08T18:22:43.801Z,17.27
2023-02-08T18:25:12.070Z,16.88
2023-02-08T18:27:39.060Z,16.67
2023-02-08T18:30:06.468Z,17.38
2023-02-08T18:32:33.852Z,16.05
2023-02-08T18:35:03.547Z,17.40
2023-02-08T18:37:31.775Z,17.23
2023-02-08T18:39:58.998Z,16.58
2023-02-08T18:42:25.827Z,17.13
2023-02-08T18:44:52.629Z,16.77
2023-02-08T18:47:19.516Z,16.17
2023-02-08T18:49:47.750Z,15.80
2023-02-08T18:52:17.433Z,16.52
2023-02-08T18:54:44.240Z,16.75
2023-02-08T18:57:11.026Z,15.77
2023-02-08T18:59:38.921Z,16.40
2023-02-08T19:02:07.222Z,16.15
2023-02-08T19:04:40.317Z,16.20
2023-02-08T19:07:07.476Z,15.48
2023-02-08T19:09:38.385Z,15.73
2023-02-08T19:12:05.636Z,15.40
2023-02-08T19:14:32.495Z,15.10
2023-02-08T19:16:59.882Z,15.40
2023-02-08T19:19:26.618Z,15.83
2023-02-08T19:21:53.422Z,15.02
2023-02-08T19:24:20.213Z,15.07
2023-02-08T19:26:47.458Z,14.88
2023-02-08T19:29:17.421Z,14.48
2023-02-08T19:31:44.957Z,14.57
2023-02-08T19:34:12.581Z,14.65
2023-02-08T19:36:46.415Z,14.00
2023-02-08T19:39:16.903Z,14.90
2023-02-08T19:41:45.296Z,15.03
2023-02-08T19:44:14.556Z,14.05
2023-02-08T19:46:44.035Z,14.07
2023-02-08T19:49:12.687Z,14.23
2023-02-08T19:51:39.949Z,14.82
2023-02-08T19:54:13.033Z,14.90
2023-02-08T19:56:40.397Z,14.75
2023-02-08T19:59:14.438Z,14.57
2023-02-08T20:01:41.449Z,13.80
2023-02-08T20:04:08.209Z,14.15
2023-02-08T20:06:38.630Z,14.37
2023-02-08T20:09:06.760Z,13.90
2023-02-08T20:11:38.674Z,14.23
2023-02-08T20:14:11.534Z,13.75
2023-02-08T20:16:38.346Z,14.15
2023-02-08T20:19:05.333Z,13.57
2023-02-08T20:21:32.438Z,13.03
2023-02-08T20:24:01.194Z,14.35
2023-02-08T20:26:29.782Z,13.93
2023-02-08T20:28:58.861Z,13.57
2023-02-08T20:31:31.728Z,13.57
2023-02-08T20:34:00.993Z,13.80
2023-02-08T20:36:30.145Z,13.85
2023-02-08T20:38:58.380Z,13.07
2023-02-08T20:41:27.358Z,12.90
2023-02-08T20:43:54.593Z,13.25
2023-02-08T20:46:24.355Z,13.20
2023-02-08T20:48:52.738Z,12.98
2023-02-08T20:51:21.377Z,13.02
2023-02-08T20:53:49.842Z,12.60
2023-02-08T20:56:23.321Z,12.40
2023-02-08T20:58:50.595Z,12.88
2023-02-08T21:01:21.181Z,12.77
2023-02-08T21:03:48.497Z,12.67
2023-02-08T21:06:18.533Z,12.80
2023-02-08T21:08:51.428Z,12.23
2023-02-08T21:11:26.759Z,12.32
2023-02-08T21:13:54.054Z,12.70
2023-02-08T21:16:21.130Z,13.17
2023-02-08T21:18:47.985Z,12.27
2023-02-08T21:21:15.303Z,12.95
2023-02-08T21:23:42.840Z,12.02
2023-02-08T21:26:12.804Z,11.88
2023-02-08T21:28:39.674Z,12.17
2023-02-08T21:31:08.923Z,12.10
2023-02-08T21:33:35.849Z,11.88
2023-02-08T21:36:04.887Z,11.20
2023-02-08T21:38:31.663Z,11.85
2023-02-08T21:40:58.396Z,11.55
2023-02-08T21:43:25.088Z,11.52
2023-02-08T21:45:51.884Z,10.95
2023-02-08T21:48:18.640Z,11.43
2023-02-08T21:51:08.389Z,11.18
2023-02-08T21:53:53.875Z,10.93
2023-02-08T21:56:20.663Z,10.95
2023-02-08T21:58:47.423Z,10.65
2023-02-08T22:01:14.134Z,10.38
2023-02-08T22:03:40.927Z,10.85
2023-02-08T22:06:07.844Z,10.57
2023-02-08T22:08:34.616Z,10.77
2023-02-08T22:11:04.617Z,10.30
2023-02-08T22:13:33.084Z,10.40
2023-02-08T22:16:00.612Z,10.48
2023-02-08T22:18:27.482Z,10.10
2023-02-08T22:20:54.629Z,10.45
2023-02-08T22:23:21.730Z,10.38
2023-02-08T22:25:48.614Z,10.38
2023-02-08T22:28:15.556Z,9.65
2023-02-08T22:30:42.532Z,10.05
2023-02-08T22:33:09.389Z,10.30
2023-02-08T22:35:38.562Z,10.05
2023-02-08T22:38:05.345Z,10.05
2023-02-08T22:40:32.108Z,9.73
2023-02-08T22:42:58.915Z,10.00
2023-02-08T22:45:25.787Z,10.15
2023-02-08T22:47:52.465Z,9.55
2023-02-08T22:50:19.242Z,9.20
2023-02-08T22:52:46.041Z,9.70
2023-02-08T22:55:12.922Z,9.40
2023-02-08T22:57:43.216Z,9.53
2023-02-08T23:00:10.718Z,9.57
2023-02-08T23:02:37.407Z,9.52
2023-02-08T23:05:04.393Z,9.20
2023-02-08T23:07:31.258Z,9.25
2023-02-08T23:09:58.064Z,9.30
2023-02-08T23:12:24.927Z,9.30
2023-02-08T23:14:51.758Z,9.68
2023-02-08T23:17:18.461Z,9.45
2023-02-08T23:19:45.327Z,9.00
2023-02-08T23:22:12.257Z,8.68
2023-02-08T23:24:39.001Z,9.27
2023-02-08T23:27:05.878Z,9.20
2023-02-08T23:29:32.552Z,8.98
2023-02-08T23:31:59.398Z,9.00
2023-02-08T23:34:27.053Z,8.77
2023-02-08T23:36:53.846Z,8.95
2023-02-08T23:39:20.678Z,8.50
2023-02-08T23:41:47.405Z,8.70
2023-02-08T23:44:14.164Z,8.93
2023-02-08T23:46:40.918Z,8.38
2023-02-08T23:49:07.725Z,8.80
2023-02-08T23:51:34.535Z,8.52
2023-02-08T23:54:01.380Z,8.60
2023-02-08T23:56:31.821Z,8.60
2023-02-08T23:58:59.329Z,8.13
